SLC weather

Salt Lake City International Airport
Salt Lake City, Utah, United States

Public forecast

Using degrees Fahrenheit for public forecast. Weather courtesy of forecast.io.

METAR (pilot weather report)

Retrieved 2019/02/18 17:54 UTC (28 minutes ago):

KSLC 181754Z 00000KT 10SM SCT036 BKN055 BKN200 M01/M10 A2997 RMK AO2 SLP162 SCSL DSNT SE T10111100 10000 21050 51012

TAF (pilot weather forecast)

Retrieved 2019/02/18 18:51 UTC (0 seconds ago):

TAF KSLC 181749Z 1818/1924 32008KT P6SM SCT040 BKN090 FM190700 16004KT P6SM SCT040 BKN100 FM191300 34006KT P6SM VCSH SCT040 BKN060 FM191900 34006KT P6SM SCT040 BKN080